메인 페이지
METAR-TAF:

METAR-TAF

공항 :

멜버른 공항

멜버른, 오스트레일리아

위도: 37-40-24S, 경도: 144-50-36E, 고도: 132m

현재 날씨관측

예보는 34분 전, 14:00시(UTC)에 발표되었습니다.
8kt
온도 6°C
습도 93%
기압 1026 hPa
시정: 8000m
고도 1400ft 상공 구름 조금

METAR: YMML 251400Z 01008KT 8000 FEW014 06/05 Q1026 MIST

시각: 00:34 (14:34 UTC)

예보

예보는 1 시간 58분 전, 12:36시(UTC)에 발표되었습니다.
예보 대상 시간: 25일 12시부터 26일 18시까지 (UTC)
6kt
시정: 6000m
고도 800ft 상공 구름 조금
연무
25일 1700시부터 (UTC)
7kt
시정 10km 이상
1500m 미만 상공 구름 및 적란운 없음
26일 0300시부터 (UTC)
남서5kt
시정 10km 이상
1500m 미만 상공 구름 및 적란운 없음
26일 0800시부터 (UTC)
8kt
시정 10km 이상
1500m 미만 상공 구름 및 적란운 없음

TAF: YMML 251236Z 2512/2618 35006KT 6000 HZ FEW008 FM251700 36007KT CAVOK FM260300 22005KT CAVOK FM260800 35008KT CAVOK

4,000개 이상의 공항 관측 자료 및 예보 (METAR 및 TAF 보고).

지도상에서 검색 가능한 기상관측소가 노란 점과 빨간 점으로 표시되어 있습니다.

기상관측소 명을 보려면 표시 위로 마우스를 이동하세요.

날씨 관측과 예보를 보려면 클릭하세요.

지도 변경 : 확대하려면 엑스 표시가 있는 녹색 버튼, 축소하려면 빼기 표시가 있는 녹색 버튼, 다음 페이지의 지도를 보려면 녹색 화살표를 클릭하세요.


METAR-TAF: